createdAt,value
2018-09-17T00:00:09.464Z,19.99
2018-09-17T00:02:40.066Z,20.26
2018-09-17T00:05:11.773Z,20.20
2018-09-17T00:07:41.830Z,20.30
2018-09-17T00:10:12.282Z,19.82
2018-09-17T00:12:42.422Z,19.43
2018-09-17T00:15:13.383Z,20.00
2018-09-17T00:17:43.663Z,20.24
2018-09-17T00:20:14.323Z,20.31
2018-09-17T00:22:44.418Z,20.37
2018-09-17T00:25:18.534Z,20.18
2018-09-17T00:27:48.715Z,19.56
2018-09-17T00:30:18.916Z,19.37
2018-09-17T00:32:49.173Z,19.76
2018-09-17T00:35:20.655Z,20.10
2018-09-17T00:37:51.343Z,19.99
2018-09-17T00:40:21.870Z,19.53
2018-09-17T00:42:52.227Z,19.07
2018-09-17T00:45:26.955Z,19.56
2018-09-17T00:47:57.288Z,19.91
2018-09-17T00:50:27.678Z,20.10
2018-09-17T00:52:58.030Z,20.16
2018-09-17T00:55:29.324Z,20.29
2018-09-17T00:57:59.772Z,20.33
2018-09-17T01:00:30.110Z,19.79
2018-09-17T01:03:00.549Z,19.55
2018-09-17T01:05:32.213Z,19.62
2018-09-17T01:08:02.527Z,19.83
2018-09-17T01:10:32.765Z,20.03
2018-09-17T01:13:02.771Z,20.03
2018-09-17T01:15:34.096Z,19.92
2018-09-17T01:18:04.640Z,20.05
2018-09-17T01:20:35.022Z,20.18
2018-09-17T01:23:05.282Z,20.19
2018-09-17T01:25:36.029Z,20.21
2018-09-17T01:28:06.055Z,20.18
2018-09-17T01:30:36.369Z,20.00
2018-09-17T01:33:06.679Z,20.13
2018-09-17T01:35:38.133Z,20.22
2018-09-17T01:38:08.366Z,20.29
2018-09-17T01:40:38.677Z,20.01
2018-09-17T01:43:09.050Z,19.97
2018-09-17T01:45:39.841Z,20.03
2018-09-17T01:48:10.142Z,20.16
2018-09-17T01:50:40.463Z,19.72
2018-09-17T01:53:10.709Z,19.87
2018-09-17T01:55:41.441Z,20.16
2018-09-17T01:58:11.598Z,20.24
2018-09-17T02:00:41.782Z,20.35
2018-09-17T02:03:12.169Z,20.43
2018-09-17T02:05:43.778Z,20.37
2018-09-17T02:08:14.006Z,20.25
2018-09-17T02:10:44.296Z,20.02
2018-09-17T02:13:14.811Z,20.07
2018-09-17T02:15:45.569Z,20.29
2018-09-17T02:18:16.142Z,20.34
2018-09-17T02:20:46.698Z,20.22
2018-09-17T02:23:16.918Z,20.24
2018-09-17T02:25:47.278Z,19.70
2018-09-17T02:28:17.811Z,18.84
2018-09-17T02:30:48.481Z,18.87
2018-09-17T02:33:18.746Z,19.43
2018-09-17T02:35:49.198Z,18.67
2018-09-17T02:38:19.311Z,18.13
2018-09-17T02:40:49.744Z,18.17
2018-09-17T02:43:20.029Z,17.88
2018-09-17T02:45:50.787Z,17.91
2018-09-17T02:49:45.242Z,18.57
2018-09-17T02:52:15.374Z,18.81
2018-09-17T02:54:45.898Z,19.19
2018-09-17T02:57:15.950Z,18.72
2018-09-17T02:59:46.478Z,19.09
2018-09-17T03:02:16.729Z,19.24
2018-09-17T03:04:47.894Z,19.28
2018-09-17T03:07:18.421Z,19.21
2018-09-17T03:09:49.018Z,19.32
2018-09-17T03:12:19.408Z,19.31
2018-09-17T03:14:50.691Z,19.33
2018-09-17T03:17:21.145Z,19.41
2018-09-17T03:19:51.174Z,19.51
2018-09-17T03:22:21.123Z,19.30
2018-09-17T03:24:52.233Z,19.38
2018-09-17T03:27:22.970Z,19.32
2018-09-17T03:29:53.313Z,19.12
2018-09-17T03:32:23.758Z,18.26
2018-09-17T03:34:54.229Z,17.63
2018-09-17T03:37:28.541Z,17.93
2018-09-17T03:39:59.966Z,18.20
2018-09-17T03:42:30.769Z,17.87
2018-09-17T03:45:02.119Z,17.81
2018-09-17T03:47:32.711Z,17.97
2018-09-17T03:50:03.182Z,18.01
2018-09-17T03:52:33.369Z,18.37
2018-09-17T03:55:04.604Z,18.33
2018-09-17T03:57:35.079Z,18.35
2018-09-17T04:00:05.568Z,18.58
2018-09-17T04:02:36.129Z,18.69
2018-09-17T04:05:07.001Z,18.98
2018-09-17T04:07:37.604Z,18.69
2018-09-17T04:10:08.024Z,18.42
2018-09-17T04:12:38.106Z,17.89
2018-09-17T04:15:09.274Z,18.22
2018-09-17T04:17:39.559Z,18.51
2018-09-17T04:20:09.805Z,18.51
2018-09-17T04:22:39.991Z,18.75
2018-09-17T04:25:10.463Z,18.78
2018-09-17T04:27:40.730Z,18.66
2018-09-17T04:30:11.150Z,18.71
2018-09-17T04:32:41.491Z,18.82
2018-09-17T04:35:12.758Z,18.98
2018-09-17T04:37:42.983Z,19.11
2018-09-17T04:40:13.238Z,19.19
2018-09-17T04:42:43.413Z,19.80
2018-09-17T04:45:14.421Z,20.22
2018-09-17T04:47:44.850Z,19.67
2018-09-17T04:50:14.895Z,19.65
2018-09-17T04:52:45.271Z,19.49
2018-09-17T04:55:15.441Z,19.14
2018-09-17T04:57:45.894Z,18.94
2018-09-17T05:00:16.395Z,19.03
2018-09-17T05:02:46.827Z,19.24
2018-09-17T05:05:18.167Z,18.86
2018-09-17T05:07:48.921Z,18.87
2018-09-17T05:10:19.319Z,18.44
2018-09-17T05:12:49.898Z,18.76
2018-09-17T05:15:21.040Z,19.50
2018-09-17T05:17:51.045Z,19.85
2018-09-17T05:20:21.299Z,19.62
2018-09-17T05:22:51.805Z,19.72
2018-09-17T05:25:22.659Z,19.99
2018-09-17T05:27:52.649Z,20.18
2018-09-17T05:30:22.795Z,20.71
2018-09-17T05:32:52.964Z,20.98
2018-09-17T05:35:24.822Z,21.18
2018-09-17T05:37:55.274Z,21.16
2018-09-17T05:40:25.468Z,20.75
2018-09-17T05:42:55.886Z,20.91
2018-09-17T05:45:27.350Z,20.43
2018-09-17T05:47:57.818Z,20.93
2018-09-17T05:50:28.303Z,21.57
2018-09-17T05:52:58.765Z,21.27
2018-09-17T05:55:29.323Z,21.58
2018-09-17T05:57:59.809Z,22.34
2018-09-17T06:00:30.247Z,22.92
2018-09-17T06:03:00.659Z,23.52
2018-09-17T06:05:32.222Z,23.54
2018-09-17T06:08:03.326Z,22.24
2018-09-17T06:10:33.849Z,22.53
2018-09-17T06:13:04.422Z,22.32
2018-09-17T06:15:35.015Z,22.49
2018-09-17T06:18:05.270Z,22.02
2018-09-17T06:20:35.666Z,22.43
2018-09-17T06:23:05.808Z,22.38
2018-09-17T06:25:36.601Z,22.20
2018-09-17T06:28:06.878Z,22.50
2018-09-17T06:30:37.182Z,22.54
2018-09-17T06:33:07.494Z,22.89
2018-09-17T06:35:38.335Z,23.88
2018-09-17T06:38:08.855Z,24.57
2018-09-17T06:40:39.031Z,25.67
2018-09-17T06:43:09.807Z,24.90
2018-09-17T06:45:40.945Z,24.48
2018-09-17T06:48:11.503Z,24.77
2018-09-17T06:50:41.669Z,25.83
2018-09-17T06:53:12.168Z,25.41
2018-09-17T06:55:42.981Z,25.19
2018-09-17T06:58:13.480Z,24.71
2018-09-17T07:00:43.853Z,24.22
2018-09-17T07:03:14.124Z,24.49
2018-09-17T07:05:45.302Z,24.32
2018-09-17T07:08:15.894Z,24.36
2018-09-17T07:10:46.249Z,24.25
2018-09-17T07:13:16.770Z,23.95
2018-09-17T07:15:48.062Z,23.56
2018-09-17T07:18:18.242Z,23.70
2018-09-17T07:20:48.754Z,24.00
2018-09-17T07:23:19.115Z,23.76
2018-09-17T07:25:50.607Z,24.05
2018-09-17T07:28:20.789Z,23.91
2018-09-17T07:30:51.303Z,24.28
2018-09-17T07:33:21.857Z,24.60
2018-09-17T07:35:52.593Z,25.02
2018-09-17T07:38:22.274Z,26.26
2018-09-17T07:40:52.046Z,26.82
2018-09-17T07:43:21.891Z,27.29
2018-09-17T07:45:52.481Z,27.55
2018-09-17T07:48:22.238Z,28.13
2018-09-17T07:50:52.019Z,28.10
2018-09-17T07:53:21.802Z,28.56
2018-09-17T07:55:51.568Z,28.89
2018-09-17T07:58:21.474Z,26.99
2018-09-17T08:00:51.250Z,28.15
2018-09-17T08:03:21.038Z,28.83
2018-09-17T08:05:50.723Z,29.65
2018-09-17T08:08:20.842Z,30.25
2018-09-17T08:10:50.435Z,30.06
2018-09-17T08:13:20.785Z,30.37
2018-09-17T08:15:50.899Z,30.77
2018-09-17T08:18:20.825Z,31.19
2018-09-17T08:20:50.508Z,30.94
2018-09-17T08:23:20.721Z,31.66
2018-09-17T08:25:51.046Z,31.42
2018-09-17T08:28:21.574Z,31.67
2018-09-17T08:30:51.825Z,32.34
2018-09-17T08:33:21.809Z,32.17
2018-09-17T08:35:55.314Z,32.36
2018-09-17T08:38:25.541Z,32.45
2018-09-17T08:40:56.158Z,32.59
2018-09-17T08:43:26.697Z,32.64
2018-09-17T08:45:57.453Z,33.40
2018-09-17T08:48:28.027Z,32.33
2018-09-17T08:50:58.270Z,32.85
2018-09-17T08:53:29.197Z,32.94
2018-09-17T08:56:00.631Z,31.23
2018-09-17T08:58:39.890Z,33.86
2018-09-17T09:01:14.516Z,33.23
2018-09-17T09:03:49.915Z,33.93
2018-09-17T09:06:25.082Z,32.51
2018-09-17T09:08:55.564Z,34.30
2018-09-17T09:11:31.048Z,32.81
2018-09-17T09:14:06.838Z,33.59
2018-09-17T09:16:37.834Z,34.35
2018-09-17T09:19:08.252Z,35.13
2018-09-17T09:21:38.378Z,33.90
2018-09-17T09:24:08.770Z,34.08
2018-09-17T09:29:47.738Z,32.79
2018-09-17T09:32:17.534Z,33.56
2018-09-17T09:34:48.151Z,33.94
2018-09-17T09:37:18.950Z,34.42
2018-09-17T09:39:49.932Z,34.06
2018-09-17T09:42:20.418Z,34.45
2018-09-17T09:44:51.219Z,34.70
2018-09-17T09:47:21.765Z,34.80
2018-09-17T09:50:07.464Z,34.77
2018-09-17T09:52:38.107Z,35.68
2018-09-17T09:55:07.993Z,36.08
2018-09-17T09:57:37.913Z,35.62
2018-09-17T10:00:14.981Z,36.27
2018-09-17T10:02:48.210Z,36.23
2018-09-17T10:05:18.087Z,36.50
2018-09-17T10:07:48.059Z,35.11
2018-09-17T10:10:26.032Z,35.31
2018-09-17T10:13:00.971Z,35.63
2018-09-17T10:15:35.828Z,35.79
2018-09-17T10:18:10.736Z,35.73
2018-09-17T10:20:40.983Z,36.41
2018-09-17T10:23:10.723Z,37.18
2018-09-17T10:25:40.439Z,35.28
2018-09-17T10:28:10.212Z,35.84
2018-09-17T10:30:40.551Z,35.43
2018-09-17T10:33:10.306Z,36.34
2018-09-17T10:35:40.147Z,36.24
2018-09-17T10:38:09.930Z,36.78
2018-09-17T10:40:39.759Z,34.75
2018-09-17T10:43:09.394Z,36.17
2018-09-17T10:45:39.131Z,36.00
2018-09-17T10:48:08.893Z,36.28
2018-09-17T10:50:38.542Z,36.06
2018-09-17T10:53:08.322Z,35.88
2018-09-17T10:55:37.976Z,36.85
2018-09-17T10:58:07.739Z,38.22
2018-09-17T11:00:37.532Z,38.05
2018-09-17T11:03:07.259Z,35.91
2018-09-17T11:05:37.193Z,36.33
2018-09-17T11:08:06.984Z,36.28
2018-09-17T11:10:37.066Z,37.62
2018-09-17T11:13:37.108Z,37.70
2018-09-17T11:16:06.806Z,37.14
2018-09-17T11:18:36.464Z,35.89
2018-09-17T11:21:06.471Z,36.48
2018-09-17T11:23:36.237Z,37.29
2018-09-17T11:26:06.000Z,37.22
2018-09-17T11:28:35.759Z,37.22
2018-09-17T11:31:06.085Z,38.09
2018-09-17T11:33:35.892Z,38.80
2018-09-17T11:36:05.987Z,37.96
2018-09-17T11:38:35.813Z,37.36
2018-09-17T11:41:05.660Z,37.55
2018-09-17T11:43:36.205Z,37.17
2018-09-17T11:46:06.133Z,36.76
2018-09-17T11:48:37.067Z,37.94
2018-09-17T11:51:07.016Z,35.98
2018-09-17T11:53:36.977Z,36.31
2018-09-17T11:56:06.818Z,36.58
2018-09-17T11:58:37.871Z,35.67
2018-09-17T12:01:12.598Z,35.49
2018-09-17T12:03:47.483Z,34.54
2018-09-17T12:06:22.436Z,35.26
2018-09-17T12:08:52.587Z,36.00
2018-09-17T12:11:22.491Z,36.09
2018-09-17T12:13:52.346Z,36.56
2018-09-17T12:16:22.162Z,36.49
2018-09-17T12:18:52.039Z,38.02
2018-09-17T12:21:21.862Z,37.60
2018-09-17T12:23:51.747Z,37.21
2018-09-17T12:26:21.611Z,37.67
2018-09-17T12:28:51.279Z,38.31
2018-09-17T12:31:21.481Z,37.47
2018-09-17T12:33:51.315Z,36.86
2018-09-17T12:36:21.037Z,37.04
2018-09-17T12:38:50.942Z,38.13
2018-09-17T12:41:20.777Z,38.31
2018-09-17T12:43:50.830Z,38.04
2018-09-17T12:46:20.687Z,38.02
2018-09-17T12:48:50.464Z,36.99
2018-09-17T12:51:20.324Z,36.38
2018-09-17T12:53:50.226Z,37.27
2018-09-17T12:56:19.911Z,37.69
2018-09-17T12:58:49.665Z,36.05
2018-09-17T13:01:19.426Z,36.33
2018-09-17T13:03:49.514Z,36.94
2018-09-17T13:06:19.472Z,36.72
2018-09-17T13:08:49.313Z,37.29
2018-09-17T13:11:19.148Z,37.35
2018-09-17T13:13:48.962Z,36.55
2018-09-17T13:16:18.823Z,37.56
2018-09-17T13:18:48.622Z,36.39
2018-09-17T13:21:18.366Z,36.69
2018-09-17T13:23:48.059Z,35.85
2018-09-17T13:26:17.887Z,34.62
2018-09-17T13:28:47.695Z,34.24
2018-09-17T13:31:17.387Z,33.46
2018-09-17T13:33:47.290Z,34.37
2018-09-17T13:36:17.123Z,34.03
2018-09-17T13:38:46.938Z,34.43
2018-09-17T13:41:16.785Z,33.63
2018-09-17T13:43:46.602Z,34.49
2018-09-17T13:46:16.577Z,35.15
2018-09-17T13:48:46.367Z,35.29
2018-09-17T13:51:16.293Z,35.17
2018-09-17T13:53:46.156Z,35.00
2018-09-17T13:56:16.017Z,34.62
2018-09-17T13:58:45.863Z,34.69
2018-09-17T14:01:15.684Z,35.95
2018-09-17T14:03:45.257Z,34.62
2018-09-17T14:06:14.912Z,33.58
2018-09-17T14:08:44.572Z,33.52
2018-09-17T14:11:14.378Z,33.40
2018-09-17T14:13:44.153Z,33.36
2018-09-17T14:16:13.984Z,33.53
2018-09-17T14:18:43.761Z,32.74
2018-09-17T14:21:13.471Z,32.50
2018-09-17T14:23:43.263Z,33.29
2018-09-17T14:26:13.289Z,32.77
2018-09-17T14:28:43.030Z,32.67
2018-09-17T14:31:12.878Z,32.78
2018-09-17T14:33:42.600Z,33.34
2018-09-17T14:36:12.751Z,31.99
2018-09-17T14:38:42.590Z,32.07
2018-09-17T14:41:12.194Z,30.98
2018-09-17T14:43:42.121Z,31.34
2018-09-17T14:46:12.079Z,30.29
2018-09-17T14:48:43.069Z,29.83
2018-09-17T14:51:13.016Z,29.20
2018-09-17T14:53:43.260Z,29.18
2018-09-17T14:56:13.118Z,28.98
2018-09-17T14:58:43.731Z,29.33
2018-09-17T15:01:13.557Z,28.88
2018-09-17T15:03:43.585Z,29.03
2018-09-17T15:06:13.426Z,28.65
2018-09-17T15:08:43.342Z,28.91
2018-09-17T15:11:13.143Z,29.31
2018-09-17T15:13:44.025Z,29.03
2018-09-17T15:16:13.788Z,28.77
2018-09-17T15:18:44.711Z,28.89
2018-09-17T15:21:14.566Z,29.12
2018-09-17T15:23:44.436Z,29.03
2018-09-17T15:26:14.324Z,28.87
2018-09-17T15:28:44.669Z,28.23
2018-09-17T15:31:14.404Z,28.52
2018-09-17T15:33:44.196Z,28.27
2018-09-17T15:36:14.057Z,27.65
2018-09-17T15:38:45.715Z,27.48
2018-09-17T15:41:15.689Z,27.47
2018-09-17T15:43:45.400Z,25.84
2018-09-17T15:46:15.338Z,26.94
2018-09-17T15:48:45.412Z,26.89
2018-09-17T15:51:15.595Z,27.02
2018-09-17T15:53:45.986Z,27.06
2018-09-17T15:56:16.626Z,26.61
2018-09-17T15:58:47.405Z,26.27
2018-09-17T16:01:17.855Z,25.92
2018-09-17T16:03:48.695Z,26.08
2018-09-17T16:06:18.947Z,25.71
2018-09-17T16:08:49.204Z,25.64
2018-09-17T16:11:19.618Z,25.80
2018-09-17T16:13:50.363Z,25.50
2018-09-17T16:16:21.110Z,25.74
2018-09-17T16:18:52.638Z,25.49
2018-09-17T16:21:23.018Z,25.42
2018-09-17T16:23:53.705Z,25.64
2018-09-17T16:26:24.327Z,25.63
2018-09-17T16:28:55.614Z,25.59
2018-09-17T16:31:25.912Z,25.77
2018-09-17T16:33:56.545Z,25.75
2018-09-17T16:36:27.171Z,25.07
2018-09-17T16:38:58.317Z,25.05
2018-09-17T16:41:28.906Z,25.39
2018-09-17T16:43:59.387Z,25.69
2018-09-17T16:51:20.050Z,25.64
2018-09-17T16:53:49.801Z,25.24
2018-09-17T16:56:19.603Z,25.05
2018-09-17T16:58:49.581Z,24.53
2018-09-17T17:02:43.683Z,24.64
2018-09-17T17:05:13.641Z,24.44
2018-09-17T17:07:43.420Z,24.19
2018-09-17T17:10:13.364Z,24.18
2018-09-17T17:12:43.170Z,24.34
2018-09-17T17:15:12.926Z,24.46
2018-09-17T17:17:42.639Z,24.45
2018-09-17T17:20:12.436Z,24.14
2018-09-17T17:22:42.219Z,24.06
2018-09-17T17:25:12.030Z,24.48
2018-09-17T17:27:41.735Z,24.26
2018-09-17T17:31:40.472Z,23.86
2018-09-17T17:34:10.289Z,24.29
2018-09-17T17:36:40.341Z,24.23
2018-09-17T17:39:12.127Z,24.56
2018-09-17T17:41:41.999Z,24.69
2018-09-17T17:44:11.694Z,24.29
2018-09-17T17:46:41.768Z,24.31
2018-09-17T17:49:11.997Z,23.72
2018-09-17T17:51:42.502Z,23.84
2018-09-17T17:54:13.142Z,23.86
2018-09-17T17:56:45.165Z,24.17
2018-09-17T17:59:15.833Z,24.12
2018-09-17T18:01:46.094Z,23.56
2018-09-17T18:04:17.140Z,23.94
2018-09-17T18:06:48.738Z,24.32
2018-09-17T18:09:19.266Z,24.53
2018-09-17T18:11:49.995Z,24.26
2018-09-17T18:14:20.454Z,24.40
2018-09-17T18:16:51.500Z,24.53
2018-09-17T18:19:22.205Z,24.55
2018-09-17T18:21:52.707Z,23.68
2018-09-17T18:24:23.307Z,24.01
2018-09-17T18:26:53.832Z,23.96
2018-09-17T18:29:24.425Z,23.43
2018-09-17T18:31:54.968Z,23.08
2018-09-17T18:34:25.602Z,22.43
2018-09-17T18:36:57.020Z,22.49
2018-09-17T18:39:27.821Z,22.50
2018-09-17T18:41:58.099Z,22.37
2018-09-17T18:44:28.660Z,22.28
2018-09-17T18:47:00.389Z,22.70
2018-09-17T18:49:30.303Z,22.46
2018-09-17T18:52:00.881Z,23.03
2018-09-17T18:54:31.463Z,23.27
2018-09-17T18:57:03.554Z,22.86
2018-09-17T18:59:33.914Z,22.27
2018-09-17T19:02:04.929Z,22.03
2018-09-17T19:04:35.725Z,21.76
2018-09-17T19:07:07.088Z,22.23
2018-09-17T19:09:42.595Z,22.41
2018-09-17T19:12:13.625Z,22.78
2018-09-17T19:16:52.193Z,22.60
2018-09-17T19:19:22.478Z,22.67
2018-09-17T19:21:58.035Z,22.57
2018-09-17T19:24:28.190Z,22.87
2018-09-17T19:26:58.013Z,22.62
2018-09-17T19:29:27.818Z,22.31
2018-09-17T19:31:57.819Z,22.61
2018-09-17T19:34:28.532Z,22.40
2018-09-17T19:37:03.484Z,22.50
2018-09-17T19:39:39.039Z,22.97
2018-09-17T19:42:09.753Z,22.87
2018-09-17T19:44:45.030Z,22.98
2018-09-17T19:47:14.730Z,23.09
2018-09-17T19:49:44.679Z,21.22
2018-09-17T19:52:20.689Z,22.79
2018-09-17T19:54:50.430Z,22.88
2018-09-17T19:59:29.632Z,23.23
2018-09-17T20:02:00.279Z,23.75
2018-09-17T20:04:35.645Z,23.87
2018-09-17T20:07:06.210Z,24.00
2018-09-17T20:09:36.823Z,24.11
2018-09-17T20:12:07.702Z,23.55
2018-09-17T20:14:38.686Z,23.72
2018-09-17T20:17:09.322Z,23.91
2018-09-17T20:19:39.862Z,24.14
2018-09-17T20:22:11.393Z,23.79
2018-09-17T20:24:43.459Z,24.14
2018-09-17T20:27:14.236Z,24.10
2018-09-17T20:29:44.608Z,23.79
2018-09-17T20:32:15.267Z,23.31
2018-09-17T20:34:46.340Z,23.69
2018-09-17T20:37:16.999Z,23.82
2018-09-17T20:39:47.359Z,23.95
2018-09-17T20:42:17.754Z,24.09
2018-09-17T20:44:48.257Z,24.08
2018-09-17T20:47:18.784Z,23.88
2018-09-17T20:49:49.367Z,23.73
2018-09-17T20:52:19.971Z,23.95
2018-09-17T20:54:51.057Z,23.76
2018-09-17T20:57:21.471Z,23.76
2018-09-17T20:59:51.763Z,23.97
2018-09-17T21:02:22.384Z,23.77
2018-09-17T21:04:54.148Z,23.92
2018-09-17T21:07:24.811Z,23.51
2018-09-17T21:09:55.602Z,23.72
2018-09-17T21:12:25.784Z,23.90
2018-09-17T21:14:56.898Z,24.05
2018-09-17T21:17:27.270Z,23.69
2018-09-17T21:19:57.560Z,23.86
2018-09-17T21:22:28.398Z,23.57
2018-09-17T21:24:59.511Z,23.26
2018-09-17T21:27:30.035Z,23.56
2018-09-17T21:30:00.478Z,23.65
2018-09-17T21:32:31.128Z,23.81
2018-09-17T21:35:02.274Z,23.84
2018-09-17T21:37:32.626Z,23.73
2018-09-17T21:40:03.286Z,23.78
2018-09-17T21:42:33.635Z,23.74
2018-09-17T21:45:04.316Z,23.67
2018-09-17T21:47:34.999Z,23.71
2018-09-17T21:50:05.420Z,23.74
2018-09-17T21:52:36.136Z,23.65
2018-09-17T21:55:07.032Z,23.24
2018-09-17T21:57:37.770Z,23.04
2018-09-17T22:00:09.074Z,23.33
2018-09-17T22:02:39.643Z,23.52
2018-09-17T22:05:10.381Z,23.48
2018-09-17T22:07:41.087Z,23.58
2018-09-17T22:10:11.268Z,23.47
2018-09-17T22:12:41.751Z,23.51
2018-09-17T22:15:12.373Z,23.48
2018-09-17T22:17:42.778Z,23.50
2018-09-17T22:20:13.416Z,23.23
2018-09-17T22:22:44.017Z,23.41
2018-09-17T22:25:14.363Z,23.50
2018-09-17T22:27:44.723Z,23.52
2018-09-17T22:30:15.456Z,23.49
2018-09-17T22:32:45.969Z,23.48
2018-09-17T22:35:16.892Z,23.52
2018-09-17T22:37:47.305Z,23.41
2018-09-17T22:40:18.082Z,23.47
2018-09-17T22:42:48.539Z,23.47
2018-09-17T22:45:19.497Z,23.54
2018-09-17T22:47:49.985Z,23.65
2018-09-17T22:50:20.384Z,23.62
2018-09-17T22:52:50.683Z,23.47
2018-09-17T22:55:21.738Z,23.35
2018-09-17T22:59:16.643Z,23.13
2018-09-17T23:01:46.986Z,23.21
2018-09-17T23:04:17.219Z,23.27
2018-09-17T23:06:47.717Z,23.24
2018-09-17T23:09:18.438Z,23.25
2018-09-17T23:11:49.003Z,23.13
2018-09-17T23:14:20.043Z,23.05
2018-09-17T23:16:50.822Z,23.07
2018-09-17T23:19:21.671Z,23.08
2018-09-17T23:21:52.419Z,23.00
2018-09-17T23:24:23.969Z,22.79
2018-09-17T23:26:54.698Z,22.87
2018-09-17T23:29:25.268Z,22.90
2018-09-17T23:31:55.984Z,22.51
2018-09-17T23:34:26.720Z,22.65
2018-09-17T23:36:57.493Z,22.78
2018-09-17T23:39:28.084Z,22.69
2018-09-17T23:41:58.846Z,22.78
2018-09-17T23:44:29.305Z,22.64
2018-09-17T23:46:59.691Z,22.57
2018-09-17T23:49:30.195Z,22.34
2018-09-17T23:52:00.782Z,22.41
2018-09-17T23:54:32.348Z,22.33
2018-09-17T23:57:03.010Z,22.30
2018-09-17T23:59:33.541Z,21.80
